createdAt,value
2018-04-14T00:00:19.767Z,7.90
2018-04-14T00:02:47.298Z,7.80
2018-04-14T00:05:14.823Z,7.80
2018-04-14T00:07:42.355Z,7.80
2018-04-14T00:10:10.648Z,7.70
2018-04-14T00:12:38.997Z,7.60
2018-04-14T00:15:06.573Z,7.60
2018-04-14T00:17:34.907Z,7.60
2018-04-14T00:20:02.458Z,7.50
2018-04-14T00:22:29.965Z,7.50
2018-04-14T00:24:58.263Z,7.50
2018-04-14T00:27:25.768Z,7.50
2018-04-14T00:29:53.299Z,7.60
2018-04-14T00:32:20.831Z,7.70
2018-04-14T00:34:48.439Z,7.70
2018-04-14T00:37:15.992Z,7.60
2018-04-14T00:39:43.599Z,7.50
2018-04-14T00:42:11.918Z,7.40
2018-04-14T00:44:39.472Z,7.40
2018-04-14T00:47:07.015Z,7.40
2018-04-14T00:49:34.534Z,7.30
2018-04-14T00:52:02.878Z,7.20
2018-04-14T00:54:30.414Z,7.20
2018-04-14T00:56:57.931Z,7.10
2018-04-14T00:59:26.223Z,7.00
2018-04-14T01:01:53.744Z,7.00
2018-04-14T01:04:21.304Z,7.00
2018-04-14T01:06:48.892Z,6.90
2018-04-14T01:09:17.197Z,6.90
2018-04-14T01:11:44.739Z,6.80
2018-04-14T01:14:12.253Z,6.80
2018-04-14T01:16:39.799Z,6.80
2018-04-14T01:19:07.297Z,6.70
2018-04-14T01:21:34.851Z,6.70
2018-04-14T01:24:02.379Z,6.70
2018-04-14T01:26:29.911Z,6.70
2018-04-14T01:28:57.436Z,6.70
2018-04-14T01:31:25.728Z,6.70
2018-04-14T01:33:53.287Z,6.70
2018-04-14T01:36:20.852Z,6.80
2018-04-14T01:38:48.450Z,6.70
2018-04-14T01:41:16.398Z,6.80
2018-04-14T01:43:43.924Z,6.80
2018-04-14T01:46:11.434Z,6.80
2018-04-14T01:48:39.135Z,6.80
2018-04-14T01:51:07.426Z,6.70
2018-04-14T01:53:34.941Z,6.70
2018-04-14T01:56:02.532Z,6.60
2018-04-14T01:58:30.815Z,6.50
2018-04-14T02:00:58.366Z,6.50
2018-04-14T02:03:26.699Z,6.60
2018-04-14T02:05:54.277Z,6.60
2018-04-14T02:08:21.791Z,6.70
2018-04-14T02:10:49.405Z,6.70
2018-04-14T02:13:16.939Z,6.70
2018-04-14T02:15:44.449Z,6.60
2018-04-14T02:18:11.965Z,6.50
2018-04-14T02:20:39.475Z,6.40
2018-04-14T02:23:07.048Z,6.30
2018-04-14T02:25:34.579Z,6.20
2018-04-14T02:28:02.123Z,6.20
2018-04-14T02:30:30.447Z,6.10
2018-04-14T02:32:59.026Z,6.10
2018-04-14T02:35:26.591Z,6.10
2018-04-14T02:37:54.165Z,6.10
2018-04-14T02:40:21.900Z,6.00
2018-04-14T02:42:49.448Z,6.00
2018-04-14T02:45:16.997Z,5.90
2018-04-14T02:47:44.588Z,5.90
2018-04-14T02:50:12.154Z,5.80
2018-04-14T02:52:39.688Z,5.80
2018-04-14T02:55:07.204Z,5.80
2018-04-14T02:57:34.761Z,5.70
2018-04-14T03:00:03.140Z,5.70
2018-04-14T03:02:30.769Z,5.70
2018-04-14T03:04:58.307Z,5.80
2018-04-14T03:07:25.866Z,5.90
2018-04-14T03:09:53.378Z,5.90
2018-04-14T03:12:20.915Z,5.90
2018-04-14T03:14:48.456Z,5.90
2018-04-14T03:17:15.978Z,5.90
2018-04-14T03:19:44.371Z,5.90
2018-04-14T03:22:11.896Z,5.90
2018-04-14T03:24:39.454Z,5.90
2018-04-14T03:27:06.980Z,5.90
2018-04-14T03:29:34.527Z,6.00
2018-04-14T03:32:02.063Z,5.90
2018-04-14T03:34:29.581Z,5.90
2018-04-14T03:36:57.109Z,5.80
2018-04-14T03:39:24.601Z,5.80
2018-04-14T03:41:52.174Z,5.80
2018-04-14T03:44:19.702Z,5.70
2018-04-14T03:46:47.250Z,5.70
2018-04-14T03:49:14.787Z,5.70
2018-04-14T03:51:42.323Z,5.50
2018-04-14T03:54:09.952Z,5.40
2018-04-14T03:56:38.360Z,5.30
2018-04-14T03:59:06.654Z,5.30
2018-04-14T04:01:34.169Z,5.30
2018-04-14T04:04:01.732Z,5.30
2018-04-14T04:06:29.255Z,5.30
2018-04-14T04:08:56.816Z,5.30
2018-04-14T04:11:24.385Z,5.30
2018-04-14T04:13:51.947Z,5.20
2018-04-14T04:16:19.489Z,5.20
2018-04-14T04:18:58.947Z,5.10
2018-04-14T04:21:39.818Z,5.10
2018-04-14T04:24:19.079Z,5.00
2018-04-14T04:26:46.768Z,4.90
2018-04-14T04:29:14.305Z,4.90
2018-04-14T04:31:41.848Z,4.90
2018-04-14T04:34:10.138Z,5.00
2018-04-14T04:36:38.426Z,5.00
2018-04-14T04:39:05.969Z,5.00
2018-04-14T04:41:33.506Z,5.00
2018-04-14T04:44:01.048Z,5.00
2018-04-14T04:46:28.588Z,5.00
2018-04-14T04:48:56.220Z,5.10
2018-04-14T04:51:23.721Z,5.20
2018-04-14T04:53:51.306Z,5.30
2018-04-14T04:56:18.927Z,5.40
2018-04-14T04:58:46.441Z,5.50
2018-04-14T05:01:14.807Z,5.70
2018-04-14T05:03:43.088Z,5.80
2018-04-14T05:06:11.373Z,5.80
2018-04-14T05:08:39.723Z,5.80
2018-04-14T05:11:07.244Z,5.80
2018-04-14T05:13:34.766Z,6.10
2018-04-14T05:16:03.068Z,6.30
2018-04-14T05:18:30.574Z,6.30
2018-04-14T05:20:58.130Z,6.60
2018-04-14T05:23:25.737Z,6.60
2018-04-14T05:25:53.291Z,6.50
2018-04-14T05:28:20.912Z,6.60
2018-04-14T05:30:48.461Z,6.80
2018-04-14T05:33:15.995Z,7.10
2018-04-14T05:35:43.548Z,7.40
2018-04-14T05:38:11.109Z,7.60
2018-04-14T05:40:38.721Z,7.60
2018-04-14T05:43:06.275Z,7.80
2018-04-14T05:45:33.861Z,8.10
2018-04-14T05:48:02.150Z,7.90
2018-04-14T05:50:29.768Z,7.90
2018-04-14T05:52:57.328Z,8.00
2018-04-14T05:55:24.858Z,8.00
2018-04-14T05:57:52.396Z,8.20
2018-04-14T06:00:19.934Z,8.10
2018-04-14T06:02:47.457Z,8.30
2018-04-14T06:05:15.019Z,8.70
2018-04-14T06:07:42.549Z,9.10
2018-04-14T06:10:10.055Z,9.90
2018-04-14T06:12:37.616Z,10.70
2018-04-14T06:15:05.187Z,11.20
2018-04-14T06:17:33.724Z,11.90
2018-04-14T06:20:01.248Z,12.50
2018-04-14T06:22:28.835Z,12.50
2018-04-14T06:24:56.421Z,12.30
2018-04-14T06:27:23.980Z,12.60
2018-04-14T06:29:51.530Z,13.10
2018-04-14T06:32:19.083Z,13.90
2018-04-14T06:34:46.662Z,14.00
2018-04-14T06:37:14.233Z,14.30
2018-04-14T06:39:42.523Z,14.40
2018-04-14T06:42:10.267Z,14.40
2018-04-14T06:44:37.828Z,14.70
2018-04-14T06:47:06.570Z,15.40
2018-04-14T06:49:34.142Z,15.40
2018-04-14T06:52:01.696Z,14.90
2018-04-14T06:54:29.283Z,15.30
2018-04-14T06:56:57.618Z,15.30
2018-04-14T06:59:25.207Z,15.20
2018-04-14T07:01:52.771Z,14.50
2018-04-14T07:04:20.349Z,14.10
2018-04-14T07:06:47.916Z,14.50
2018-04-14T07:09:16.220Z,15.30
2018-04-14T07:11:43.816Z,15.20
2018-04-14T07:14:11.439Z,15.20
2018-04-14T07:16:38.984Z,14.50
2018-04-14T07:19:07.291Z,15.90
2018-04-14T07:21:34.829Z,16.00
2018-04-14T07:24:02.396Z,16.60
2018-04-14T07:26:29.984Z,17.50
2018-04-14T07:28:57.569Z,18.50
2018-04-14T07:31:25.117Z,19.00
2018-04-14T07:33:52.675Z,18.30
2018-04-14T07:36:20.294Z,18.20
2018-04-14T07:38:47.855Z,17.70
2018-04-14T07:41:15.452Z,18.30
2018-04-14T07:43:43.016Z,18.70
2018-04-14T07:46:10.557Z,18.70
2018-04-14T07:48:38.191Z,18.80
2018-04-14T07:51:05.728Z,18.90
2018-04-14T07:53:33.298Z,18.90
2018-04-14T07:56:00.847Z,18.60
2018-04-14T07:58:28.426Z,19.40
2018-04-14T08:00:56.159Z,20.80
2018-04-14T08:03:23.791Z,21.00
2018-04-14T08:05:51.833Z,21.00
2018-04-14T08:08:19.421Z,20.80
2018-04-14T08:10:47.805Z,19.90
2018-04-14T08:13:16.276Z,18.60
2018-04-14T08:15:43.808Z,18.50
2018-04-14T08:18:11.537Z,19.40
2018-04-14T08:20:39.065Z,20.00
2018-04-14T08:23:06.590Z,20.00
2018-04-14T08:25:34.206Z,21.00
2018-04-14T08:28:02.511Z,22.00
2018-04-14T08:30:30.180Z,22.00
2018-04-14T08:32:57.771Z,22.30
2018-04-14T08:35:25.386Z,22.80
2018-04-14T08:37:52.986Z,22.80
2018-04-14T08:40:20.575Z,22.70
2018-04-14T08:42:48.890Z,22.00
2018-04-14T08:45:16.460Z,21.90
2018-04-14T08:47:43.998Z,21.90
2018-04-14T08:50:11.549Z,22.00
2018-04-14T08:52:39.090Z,21.90
2018-04-14T08:55:07.436Z,23.10
2018-04-14T08:57:34.990Z,23.10
2018-04-14T09:00:02.554Z,23.50
2018-04-14T09:02:30.202Z,24.00
2018-04-14T09:04:57.756Z,23.00
2018-04-14T09:07:25.290Z,21.90
2018-04-14T09:09:52.889Z,22.40
2018-04-14T09:12:20.446Z,23.50
2018-04-14T09:14:48.045Z,23.20
2018-04-14T09:17:16.355Z,22.10
2018-04-14T09:19:43.872Z,22.10
2018-04-14T09:22:12.188Z,22.70
2018-04-14T09:24:39.697Z,22.70
2018-04-14T09:27:07.371Z,23.00
2018-04-14T09:29:35.785Z,24.10
2018-04-14T09:32:04.896Z,24.10
2018-04-14T09:34:32.433Z,23.30
2018-04-14T09:37:00.032Z,23.00
2018-04-14T09:39:27.549Z,22.40
2018-04-14T09:41:55.113Z,22.80
2018-04-14T09:44:22.642Z,23.00
2018-04-14T09:46:50.945Z,24.60
2018-04-14T09:49:18.504Z,24.60
2018-04-14T09:51:46.052Z,25.50
2018-04-14T09:54:13.700Z,26.20
2018-04-14T09:56:42.026Z,23.70
2018-04-14T09:59:09.599Z,23.70
2018-04-14T10:01:37.152Z,23.70
2018-04-14T10:04:04.719Z,24.30
2018-04-14T10:06:32.255Z,25.00
2018-04-14T10:08:59.794Z,23.70
2018-04-14T10:11:27.352Z,23.10
2018-04-14T10:13:54.893Z,22.60
2018-04-14T10:16:23.220Z,24.40
2018-04-14T10:18:50.757Z,24.40
2018-04-14T10:21:18.329Z,25.20
2018-04-14T10:23:45.891Z,24.50
2018-04-14T10:26:13.456Z,23.60
2018-04-14T10:28:41.009Z,22.30
2018-04-14T10:31:08.555Z,21.70
2018-04-14T10:33:36.077Z,23.30
2018-04-14T10:36:04.388Z,25.20
2018-04-14T10:38:31.912Z,25.20
2018-04-14T10:41:00.257Z,25.60
2018-04-14T10:43:27.830Z,25.60
2018-04-14T10:45:55.399Z,26.50
2018-04-14T10:48:22.975Z,25.20
2018-04-14T10:50:51.310Z,25.60
2018-04-14T10:53:18.866Z,25.60
2018-04-14T10:55:46.488Z,27.20
2018-04-14T10:58:14.054Z,24.20
2018-04-14T11:00:41.610Z,25.30
2018-04-14T11:03:09.149Z,23.70
2018-04-14T11:05:37.449Z,25.60
2018-04-14T11:08:04.982Z,25.60
2018-04-14T11:10:33.287Z,25.80
2018-04-14T11:13:00.863Z,25.80
2018-04-14T11:15:28.452Z,26.20
2018-04-14T11:17:56.014Z,27.50
2018-04-14T11:20:23.595Z,25.20
2018-04-14T11:22:51.908Z,25.90
2018-04-14T11:25:19.510Z,26.00
2018-04-14T11:27:47.107Z,25.50
2018-04-14T11:30:14.696Z,24.10
2018-04-14T11:32:42.225Z,25.10
2018-04-14T11:35:09.751Z,25.00
2018-04-14T11:37:37.322Z,26.40
2018-04-14T11:40:05.635Z,24.90
2018-04-14T11:42:33.230Z,24.90
2018-04-14T11:45:00.835Z,26.10
2018-04-14T11:47:29.008Z,27.10
2018-04-14T11:49:56.566Z,26.30
2018-04-14T11:52:24.080Z,26.20
2018-04-14T11:54:51.624Z,24.60
2018-04-14T11:57:20.761Z,25.30
2018-04-14T11:59:48.380Z,23.40
2018-04-14T12:02:15.923Z,23.20
2018-04-14T12:04:43.486Z,24.40
2018-04-14T12:07:11.136Z,24.80
2018-04-14T12:09:38.668Z,25.00
2018-04-14T12:12:08.331Z,23.60
2018-04-14T12:14:35.846Z,23.50
2018-04-14T12:17:04.166Z,25.10
2018-04-14T12:19:31.701Z,25.10
2018-04-14T12:21:59.229Z,25.70
2018-04-14T12:24:27.535Z,25.50
2018-04-14T12:26:55.109Z,25.50
2018-04-14T12:29:22.660Z,25.40
2018-04-14T12:31:50.191Z,24.70
2018-04-14T12:34:18.514Z,25.20
2018-04-14T12:36:46.183Z,25.10
2018-04-14T12:39:13.732Z,23.40
2018-04-14T12:41:41.333Z,24.10
2018-04-14T12:44:09.711Z,26.20
2018-04-14T12:46:37.323Z,26.20
2018-04-14T12:49:04.932Z,27.80
2018-04-14T12:51:33.275Z,24.20
2018-04-14T12:54:00.803Z,24.10
2018-04-14T12:56:28.452Z,24.60
2018-04-14T12:58:56.451Z,24.50
2018-04-14T13:01:24.116Z,25.80
2018-04-14T13:03:52.491Z,25.70
2018-04-14T13:06:20.081Z,25.70
2018-04-14T13:08:47.621Z,26.50
2018-04-14T13:11:15.377Z,26.50
2018-04-14T13:13:43.021Z,25.90
2018-04-14T13:16:10.750Z,24.60
2018-04-14T13:18:39.114Z,24.60
2018-04-14T13:21:07.552Z,22.90
2018-04-14T13:23:35.111Z,22.90
2018-04-14T13:26:02.694Z,22.70
2018-04-14T13:28:30.313Z,21.80
2018-04-14T13:30:58.000Z,21.60
2018-04-14T13:33:25.569Z,22.20
2018-04-14T13:35:53.116Z,23.80
2018-04-14T13:38:20.672Z,23.40
2018-04-14T13:40:48.233Z,24.40
2018-04-14T13:43:15.792Z,23.10
2018-04-14T13:45:43.342Z,23.40
2018-04-14T13:48:10.966Z,22.70
2018-04-14T13:50:38.577Z,24.00
2018-04-14T13:53:06.144Z,23.00
2018-04-14T13:55:33.702Z,22.80
2018-04-14T13:58:01.255Z,21.90
2018-04-14T14:00:28.866Z,21.30
2018-04-14T14:02:57.165Z,21.20
2018-04-14T14:05:24.790Z,21.20
2018-04-14T14:07:53.094Z,20.60
2018-04-14T14:10:20.806Z,20.60
2018-04-14T14:12:48.363Z,20.10
2018-04-14T14:15:15.912Z,19.90
2018-04-14T14:17:43.447Z,20.00
2018-04-14T14:20:11.049Z,20.10
2018-04-14T14:22:38.600Z,20.10
2018-04-14T14:25:06.147Z,21.70
2018-04-14T14:27:33.697Z,24.30
2018-04-14T14:30:01.282Z,23.10
2018-04-14T14:32:28.864Z,22.30
2018-04-14T14:34:57.258Z,20.90
2018-04-14T14:37:24.929Z,20.80
2018-04-14T14:39:52.483Z,20.30
2018-04-14T14:42:20.071Z,20.10
2018-04-14T14:44:47.593Z,20.00
2018-04-14T14:47:15.967Z,20.20
2018-04-14T14:49:43.573Z,20.20
2018-04-14T14:52:11.158Z,20.30
2018-04-14T14:54:38.855Z,20.10
2018-04-14T14:57:06.439Z,20.00
2018-04-14T14:59:34.181Z,20.30
2018-04-14T15:02:02.484Z,20.50
2018-04-14T15:04:30.041Z,20.40
2018-04-14T15:06:57.945Z,20.30
2018-04-14T15:09:25.544Z,20.20
2018-04-14T15:11:53.856Z,20.20
2018-04-14T15:14:21.388Z,20.10
2018-04-14T15:16:48.943Z,20.20
2018-04-14T15:19:16.565Z,19.90
2018-04-14T15:21:44.262Z,19.90
2018-04-14T15:24:11.992Z,19.90
2018-04-14T15:26:39.975Z,19.90
2018-04-14T15:29:07.838Z,20.00
2018-04-14T15:31:35.859Z,20.10
2018-04-14T15:34:04.022Z,20.20
2018-04-14T15:36:31.608Z,20.60
2018-04-14T15:38:59.903Z,20.40
2018-04-14T15:41:27.492Z,20.40
2018-04-14T15:43:55.037Z,20.30
2018-04-14T15:46:23.337Z,20.50
2018-04-14T15:48:50.861Z,20.50
2018-04-14T15:51:19.176Z,20.20
2018-04-14T15:53:46.758Z,20.20
2018-04-14T15:56:14.320Z,20.10
2018-04-14T15:58:41.863Z,19.90
2018-04-14T16:01:09.376Z,19.90
2018-04-14T16:03:44.628Z,19.70
2018-04-14T16:06:05.534Z,19.70
2018-04-14T16:08:33.852Z,19.70
2018-04-14T16:11:01.379Z,19.70
2018-04-14T16:13:28.928Z,19.70
2018-04-14T16:15:57.216Z,19.80
2018-04-14T16:18:24.776Z,19.80
2018-04-14T16:20:52.299Z,19.70
2018-04-14T16:23:19.830Z,19.70
2018-04-14T16:25:47.397Z,19.70
2018-04-14T16:28:14.938Z,19.50
2018-04-14T16:30:42.492Z,19.50
2018-04-14T16:33:10.095Z,19.50
2018-04-14T16:35:37.654Z,19.50
2018-04-14T16:38:05.198Z,19.60
2018-04-14T16:40:32.822Z,19.60
2018-04-14T16:43:00.452Z,19.50
2018-04-14T16:45:28.774Z,19.50
2018-04-14T16:47:56.324Z,19.50
2018-04-14T16:50:23.858Z,19.50
2018-04-14T16:52:52.212Z,19.60
2018-04-14T16:55:19.787Z,19.60
2018-04-14T16:57:47.328Z,19.50
2018-04-14T17:00:14.868Z,19.40
2018-04-14T17:02:42.435Z,19.30
2018-04-14T17:05:10.048Z,19.20
2018-04-14T17:07:37.580Z,19.10
2018-04-14T17:10:05.873Z,18.90
2018-04-14T17:12:33.492Z,18.80
2018-04-14T17:15:01.019Z,18.80
2018-04-14T17:17:28.575Z,18.80
2018-04-14T17:19:56.224Z,18.70
2018-04-14T17:22:23.753Z,18.60
2018-04-14T17:24:52.115Z,18.50
2018-04-14T17:27:19.668Z,18.50
2018-04-14T17:29:47.222Z,18.40
2018-04-14T17:32:14.760Z,18.30
2018-04-14T17:34:42.319Z,18.20
2018-04-14T17:37:10.005Z,18.20
2018-04-14T17:39:37.749Z,18.10
2018-04-14T17:42:06.351Z,18.00
2018-04-14T17:44:33.915Z,17.90
2018-04-14T17:47:01.481Z,17.90
2018-04-14T17:49:29.235Z,17.80
2018-04-14T17:51:56.845Z,17.70
2018-04-14T17:54:24.445Z,17.60
2018-04-14T17:56:52.021Z,17.60
2018-04-14T17:59:19.564Z,17.40
2018-04-14T18:01:47.888Z,17.20
2018-04-14T18:04:16.242Z,17.10
2018-04-14T18:06:43.808Z,17.10
2018-04-14T18:09:12.169Z,17.00
2018-04-14T18:11:39.716Z,17.00
2018-04-14T18:14:07.263Z,17.00
2018-04-14T18:16:34.880Z,16.90
2018-04-14T18:19:05.366Z,16.80
2018-04-14T18:21:33.206Z,16.70
2018-04-14T18:24:01.444Z,16.60
2018-04-14T18:26:29.780Z,16.50
2018-04-14T18:28:57.311Z,16.50
2018-04-14T18:31:24.878Z,16.40
2018-04-14T18:33:52.441Z,16.30
2018-04-14T18:36:20.052Z,16.20
2018-04-14T18:38:48.641Z,16.10
2018-04-14T18:41:16.219Z,16.10
2018-04-14T18:43:43.754Z,16.10
2018-04-14T18:46:12.124Z,15.90
2018-04-14T18:48:40.447Z,15.80
2018-04-14T18:51:08.032Z,15.80
2018-04-14T18:53:35.659Z,15.70
2018-04-14T18:56:03.222Z,15.70
2018-04-14T18:58:30.794Z,15.50
2018-04-14T19:00:58.326Z,15.50
2018-04-14T19:03:25.941Z,15.50
2018-04-14T19:05:53.502Z,15.40
2018-04-14T19:08:22.515Z,15.30
2018-04-14T19:10:50.942Z,15.20
2018-04-14T19:13:18.564Z,15.20
2018-04-14T19:15:46.955Z,15.00
2018-04-14T19:18:14.794Z,15.00
2018-04-14T19:20:43.120Z,14.80
2018-04-14T19:23:10.720Z,14.80
2018-04-14T19:25:39.175Z,14.70
2018-04-14T19:28:06.742Z,14.60
2018-04-14T19:30:35.050Z,14.50
2018-04-14T19:33:03.465Z,14.40
2018-04-14T19:35:30.999Z,14.40
2018-04-14T19:37:59.342Z,14.30
2018-04-14T19:40:26.958Z,14.30
2018-04-14T19:42:54.486Z,14.40
2018-04-14T19:45:22.794Z,14.30
2018-04-14T19:47:50.389Z,14.30
2018-04-14T19:50:17.997Z,14.20
2018-04-14T19:52:46.360Z,14.10
2018-04-14T19:55:14.001Z,14.10
2018-04-14T19:57:41.622Z,14.00
2018-04-14T20:00:09.243Z,14.00
2018-04-14T20:02:37.539Z,13.90
2018-04-14T20:05:05.118Z,13.90
2018-04-14T20:07:32.677Z,13.90
2018-04-14T20:10:00.355Z,13.80
2018-04-14T20:12:27.957Z,13.80
2018-04-14T20:14:56.239Z,13.70
2018-04-14T20:17:24.619Z,13.70
2018-04-14T20:19:53.106Z,13.60
2018-04-14T20:22:21.723Z,13.60
2018-04-14T20:24:49.495Z,13.60
2018-04-14T20:27:17.123Z,13.50
2018-04-14T20:29:44.672Z,13.50
2018-04-14T20:32:13.498Z,13.20
2018-04-14T20:34:41.054Z,13.20
2018-04-14T20:37:08.610Z,13.20
2018-04-14T20:39:36.418Z,13.00
2018-04-14T20:42:03.965Z,13.00
2018-04-14T20:44:33.989Z,12.90
2018-04-14T20:47:02.022Z,12.90
2018-04-14T20:49:30.014Z,12.90
2018-04-14T20:51:57.702Z,12.90
2018-04-14T20:54:25.423Z,12.80
2018-04-14T20:56:54.928Z,12.80
2018-04-14T20:59:22.789Z,12.80
2018-04-14T21:01:56.141Z,12.80
2018-04-14T21:04:23.817Z,12.70
2018-04-14T21:06:51.399Z,12.70
2018-04-14T21:09:18.953Z,12.70
2018-04-14T21:11:46.492Z,12.60
2018-04-14T21:14:14.122Z,12.60
2018-04-14T21:16:41.794Z,12.50
2018-04-14T21:19:09.336Z,12.40
2018-04-14T21:21:36.875Z,12.30
2018-04-14T21:24:04.439Z,12.30
2018-04-14T21:26:32.087Z,12.30
2018-04-14T21:28:59.673Z,12.20
2018-04-14T21:31:27.252Z,12.20
2018-04-14T21:33:55.005Z,12.10
2018-04-14T21:36:22.584Z,12.10
2018-04-14T21:38:50.987Z,12.00
2018-04-14T21:41:18.543Z,12.00
2018-04-14T21:43:46.078Z,12.00
2018-04-14T21:46:13.689Z,11.90
2018-04-14T21:48:41.243Z,11.90
2018-04-14T21:51:08.804Z,11.80
2018-04-14T21:53:36.381Z,11.80
2018-04-14T21:56:04.001Z,11.70
2018-04-14T21:58:31.567Z,11.70
2018-04-14T22:00:59.141Z,11.70
2018-04-14T22:03:26.695Z,11.70
2018-04-14T22:05:54.209Z,11.70
2018-04-14T22:08:21.836Z,11.70
2018-04-14T22:10:49.474Z,11.70
2018-04-14T22:13:17.016Z,11.60
2018-04-14T22:15:44.551Z,11.60
2018-04-14T22:18:12.875Z,11.50
2018-04-14T22:20:40.440Z,11.50
2018-04-14T22:23:07.981Z,11.50
2018-04-14T22:25:36.305Z,11.30
2018-04-14T22:28:03.879Z,11.30
2018-04-14T22:30:32.187Z,11.30
2018-04-14T22:32:59.752Z,11.30
2018-04-14T22:35:27.301Z,11.30
2018-04-14T22:37:54.873Z,11.20
2018-04-14T22:40:22.896Z,11.20
2018-04-14T22:42:50.457Z,11.10
2018-04-14T22:45:18.059Z,11.10
2018-04-14T22:47:45.601Z,11.00
2018-04-14T22:50:13.999Z,10.90
2018-04-14T22:52:41.559Z,10.90
2018-04-14T22:55:09.190Z,10.90
2018-04-14T22:57:37.473Z,10.80
2018-04-14T23:00:05.804Z,10.80
2018-04-14T23:02:33.335Z,10.80
2018-04-14T23:05:00.857Z,10.80
2018-04-14T23:07:29.166Z,10.70
2018-04-14T23:09:56.709Z,10.70
2018-04-14T23:12:24.285Z,10.60
2018-04-14T23:14:51.823Z,10.50
2018-04-14T23:17:19.476Z,10.50
2018-04-14T23:19:47.826Z,10.40
2018-04-14T23:22:15.382Z,10.40
2018-04-14T23:24:42.922Z,10.40
2018-04-14T23:27:10.552Z,10.30
2018-04-14T23:29:38.123Z,10.30
2018-04-14T23:32:05.661Z,10.20
2018-04-14T23:34:33.209Z,10.20
2018-04-14T23:37:00.749Z,10.20
2018-04-14T23:39:29.063Z,10.20
2018-04-14T23:41:56.632Z,10.20
2018-04-14T23:44:24.252Z,10.20
2018-04-14T23:46:52.587Z,10.20
2018-04-14T23:49:20.138Z,10.10
2018-04-14T23:51:47.713Z,10.10
2018-04-14T23:54:15.241Z,10.10
2018-04-14T23:56:42.804Z,10.20
2018-04-14T23:59:10.433Z,10.10
